Cottonwood, Oklahoma
Current Conditions -  °F | °C
As of 8:35 AM on Saturday 25 Oct 2014 (Local Time) from KAQR Reporting Station
Clear Clear  
Wind Chill: 61°   Ceiling: Unl
Heat Index: 61°   Visibility: 10mi
Dew Point: 59°   Wind: 3mph
Humidity: 94%   Direction: 140°SE
Pressure: 30.13"   Gusts: NA
Location:  34.5844°N, 96.2026°W
Report Text: KAQR 251335Z AUTO 14003KT 10SM CLR 16/15 A3013 RMK AO2
Loading
Personal Weather Stations






























Interactive Weather Map New forecast layout! Learn more

10-Day Weather Forecast

Advertisements
Track Severe Weather on mobile